Flight Track Log - Related Links

Times and Time Zones

All times are in EDT time to prevent confusion due to time zone crossing. See the SWA862 flight status page for this flight to view local times or setup timezone preferences in your user account.

Time Position Orientation Groundspeed Altitude Reporting Facility
EDT Latitude Longitude Course Direction KTS MPH feet Rate Location/Type
Sat 04:48:17 PM 41.8000 -87.8167 323° Northwest 232 267 3,000  Level Chicago TRACON
Sat 04:49:07 PM 41.8200 -87.7647 63° Northeast 225 259 3,000 750 Level Chicago Center
Sat 04:50:09 PM 41.8125 -87.6761 96° East 226 260 4,400 1,016 Climbing Chicago Center
Sat 04:51:11 PM 41.8053 -87.5833 96° East 250 288 5,100 1,839 Climbing Chicago Center
Sat 04:52:13 PM 41.7961 -87.4778 97° East 276 318 8,200 3,823 Climbing Chicago Center
Sat 04:53:15 PM 41.7858 -87.3478 96° East 292 336 13,000 3,512 Climbing Chicago Center
Sat 04:54:16 PM 41.7756 -87.2250 96° East 333 383 15,400 2,683 Climbing Chicago Center
Sat 04:55:18 PM 41.7642 -87.0928 97° East 356 410 18,500 2,710 Climbing Chicago Center
Sat 04:56:20 PM 41.7614 -86.9519 91° East 377 434 21,000 2,226 Climbing Chicago Center
Sat 04:57:22 PM 41.7644 -86.8056 88° East 395 455 23,100 2,177 Climbing Chicago Center
Sat 04:58:24 PM 41.7653 -86.6222 90° East 422 486 25,500 2,226 Climbing Chicago Center
Sat 04:59:26 PM 41.7669 -86.4619 89° East 431 496 27,700 1,839 Climbing Chicago Center
Sat 05:00:28 PM 41.7692 -86.2972 89° East 440 506 29,300 1,500 Climbing Chicago Center
Sat 05:01:30 PM 41.7725 -86.1244 88° East 455 524 30,800 1,452 Climbing Chicago Center
Sat 05:02:32 PM 41.7767 -85.9531 88° East 465 535 32,300 1,561 Climbing Chicago Center
Sat 05:03:33 PM 41.7822 -85.7781 88° East 469 540 34,000 1,463 Climbing Chicago Center
Sat 05:04:35 PM 41.7892 -85.5992 87° East 474 545 35,300 1,258 Climbing Chicago Center
Sat 05:05:37 PM 41.7994 -85.4147 86° East 486 559 36,600 1,210 Climbing Chicago Center
Sat 05:06:39 PM 41.7953 -85.2292 92° East 500 575 37,800 1,161 Climbing Chicago Center
Sat 05:07:41 PM 41.7389 -85.0347 111° Southeast 471 542 39,000 581 Climbing Chicago Center
Sat 05:08:43 PM 41.6925 -84.8711 111° Southeast 472 543 39,000  Level Chicago Center
Sat 05:09:44 PM 41.6419 -84.7150 113° Southeast 461 531 39,000  Level Chicago Center
Sat 05:10:46 PM 41.5908 -84.5586 114° Southeast 460 529 39,000  Level Chicago Center
Sat 05:11:48 PM 41.5389 -84.4031 114° Southeast 459 528 39,000  Level Chicago Center
Sat 05:12:50 PM 41.4883 -84.2489 114° Southeast 456 525 39,000  Level Chicago Center
Sat 05:13:51 PM 41.4369 -84.0950 114° Southeast 454 522 39,000  Level Chicago Center
Sat 05:14:53 PM 41.3747 -83.9128 114° Southeast 454 522 39,000  Level Chicago Center
Sat 05:15:36 PM 41.3456 -83.8028 109° East 451 519 39,000  Level Cleveland Center
Sat 05:16:36 PM 41.3147 -83.6353 104° East 451 519 39,000  Level Cleveland Center
Sat 05:17:36 PM 41.2622 -83.4864 115° Southeast 451 519 39,000  Level Cleveland Center
Sat 05:18:36 PM 41.2097 -83.3350 115° Southeast 445 512 39,000  Level Cleveland Center
Sat 05:19:36 PM 41.1550 -83.1839 116° Southeast 451 519 39,000  Level Cleveland Center
Sat 05:20:36 PM 41.0975 -83.0383 118° Southeast 451 519 39,000  Level Cleveland Center
Sat 05:21:36 PM 41.0317 -82.9008 122° Southeast 451 519 39,000  Level Cleveland Center
Sat 05:22:36 PM 40.9656 -82.7608 122° Southeast 446 513 39,000  Level Cleveland Center
Sat 05:24:23 PM 40.8483 -82.5108 122° Southeast 443 510 39,000  Level Indianapolis Center
Sat 05:25:25 PM 40.7836 -82.3750 122° Southeast 437 503 39,000  Level Indianapolis Center
Sat 05:26:26 PM 40.7172 -82.2375 122° Southeast 441 507 39,000  Level Indianapolis Center
Sat 05:27:27 PM 40.6511 -82.1011 123° Southeast 440 506 39,000  Level Indianapolis Center
Sat 05:28:29 PM 40.5842 -81.9636 123° Southeast 444 511 39,000  Level Indianapolis Center
Sat 05:29:30 PM 40.5181 -81.8283 123° Southeast 439 505 39,000  Level Indianapolis Center
Sat 05:30:32 PM 40.4514 -81.6928 123° Southeast 440 506 39,000  Level Indianapolis Center
Sat 05:31:12 PM 40.4086 -81.6028 122° Southeast 444 511 39,000  Level Cleveland Center
Sat 05:32:12 PM 40.3389 -81.4683 124° Southeast 444 511 39,000  Level Cleveland Center
Sat 05:33:12 PM 40.2692 -81.3206 122° Southeast 438 504 39,000  Level Cleveland Center
Sat 05:34:12 PM 40.2031 -81.1839 122° Southeast 438 504 39,000  Level Cleveland Center
Sat 05:35:12 PM 40.1369 -81.0528 123° Southeast 438 504 39,000  Level Cleveland Center
Sat 05:36:12 PM 40.0750 -80.9275 123° Southeast 433 498 39,000  Level Cleveland Center
Sat 05:37:12 PM 40.0086 -80.7972 124° Southeast 428 493 39,000  Level Cleveland Center
Sat 05:38:12 PM 39.9461 -80.6697 123° Southeast 428 493 39,000  Level Cleveland Center
Sat 05:39:12 PM 39.8858 -80.5369 121° Southeast 423 487 39,000 -200 Level Cleveland Center
Sat 05:40:12 PM 39.8647 -80.3828 100° East 423 487 38,600 -700 Descending Cleveland Center
Sat 05:41:12 PM 39.8914 -80.2233 78° East 415 478 37,600 -950 Descending Cleveland Center
Sat 05:42:12 PM 39.9075 -80.0608 83° East 430 495 36,700 -950 Descending Cleveland Center
Sat 05:43:12 PM 39.8339 -79.9478 130° Southeast 386 444 35,700 -950 Descending Cleveland Center
Sat 05:44:12 PM 39.7458 -79.8406 137° Southeast 407 468 34,800 -1,519 Descending Cleveland Center
Sat 05:45:54 PM 39.6094 -79.6669 136° Southeast 415 478 31,600 -2,363 Descending Washington Center
Sat 05:46:52 PM 39.5194 -79.5517 135° Southeast 435 501 28,500 -2,319 Descending Washington Center
Sat 05:47:53 PM 39.4742 -79.4039 112° Southeast 436 502 27,000 -1,328 Descending Washington Center
Sat 05:48:54 PM 39.4419 -79.2331 104° East 431 496 25,800 -1,686 Descending Washington Center
Sat 05:49:54 PM 39.4169 -79.0894 103° East 431 496 23,600 -2,150 Descending Washington Center
Sat 05:50:54 PM 39.3919 -78.9458 103° East 421 484 21,500 -2,136 Descending Washington Center
Sat 05:51:52 PM 39.3667 -78.8078 103° East 415 478 19,400 -1,966 Descending Washington Center
Sat 05:52:53 PM 39.3450 -78.6753 102° East 397 457 17,600 -1,721 Descending Washington Center
Sat 05:53:54 PM 39.3228 -78.5694 105° East 386 444 15,900 -2,083 Descending Washington Center
Sat 05:54:54 PM 39.2950 -78.4156 103° East 375 432 13,400 -2,250 Descending Washington Center
Sat 05:55:54 PM 39.2708 -78.2886 104° East 365 420 11,400 -1,627 Descending Washington Center
Sat 05:56:52 PM 39.2756 -78.1656 87° East 352 405 10,200 -1,109 Descending Washington Center
Sat 05:57:53 PM 39.2717 -78.0581 93° East 332 382 9,200 -1,180 Descending Washington Center
Sat 05:58:54 PM 39.2614 -77.9506 97° East 307 353 7,800 -1,438 Descending Washington Center
Sat 05:59:54 PM 39.2508 -77.8483 98° East 295 339 6,300 -1,475 Descending Washington Center
Sat 06:00:52 PM 39.2381 -77.7489 99° East 290 334 4,900 -1,160 Descending Washington Center
Sat 06:01:53 PM 39.2147 -77.6544 108° East 279 321 4,000 -480 Descending Washington Center
Sat 06:02:57 PM 39.2000 -77.5667 102° East 238 274 3,900 -163 Descending Potomac TRACON
Sat 06:04:00 PM 39.0871 -77.5179 165° South  Level FlightAware Approximate
Sat 06:04:57 PM 39.1333 -77.4500 165° South 172 198 3,500  Level Potomac TRACON
Sat 06:05:57 PM 39.1000 -77.4500 180° South 169 194 2,700 -800 Descending Potomac TRACON
Sat 06:07:00 PM 38.9832 -77.4576 159° South  Level Estimated
Sat 06:07:57 PM 39.0167 -77.4667 159° South 129 148 1,100  Level Potomac TRACON
Sat 06:09:00 PM 38.9474 -77.4599 159° South  Level Estimated
Sat 06:16:00 PM 38.9474 -77.4599 159° South  Level Estimated
Sat 06:17:00 PM 38.9474 -77.4599 159° South  Level Estimated

Login

Don't have an account? Register now (free) for customized features, flight alerts, and more!